createdAt,value
2023-08-23T00:00:28.941Z,23.23
2023-08-23T00:02:56.768Z,23.19
2023-08-23T00:05:24.488Z,23.18
2023-08-23T00:07:52.177Z,23.11
2023-08-23T00:10:19.838Z,23.12
2023-08-23T00:12:54.258Z,23.10
2023-08-23T00:15:22.024Z,23.09
2023-08-23T00:17:50.002Z,23.08
2023-08-23T00:20:18.174Z,23.07
2023-08-23T00:25:20.016Z,23.03
2023-08-23T00:27:54.218Z,23.00
2023-08-23T00:30:29.249Z,22.95
2023-08-23T00:32:57.149Z,22.96
2023-08-23T00:35:24.856Z,22.94
2023-08-23T00:37:52.550Z,22.92
2023-08-23T00:40:20.687Z,22.89
2023-08-23T00:42:48.406Z,22.85
2023-08-23T00:45:16.197Z,22.85
2023-08-23T00:47:45.521Z,22.76
2023-08-23T00:50:13.544Z,22.74
2023-08-23T00:52:52.110Z,22.76
2023-08-23T00:55:21.070Z,22.77
2023-08-23T00:57:49.031Z,22.77
2023-08-23T01:00:17.608Z,22.60
2023-08-23T01:02:46.783Z,22.69
2023-08-23T01:05:14.507Z,22.68
2023-08-23T01:07:45.480Z,22.67
2023-08-23T01:10:16.363Z,22.66
2023-08-23T01:12:46.787Z,22.65
2023-08-23T01:15:14.451Z,22.65
2023-08-23T01:17:44.111Z,22.63
2023-08-23T01:20:13.987Z,22.61
2023-08-23T01:22:46.453Z,22.55
2023-08-23T01:25:15.532Z,22.59
2023-08-23T01:27:54.640Z,22.57
2023-08-23T01:30:23.984Z,22.51
2023-08-23T01:32:53.671Z,22.52
2023-08-23T01:35:23.147Z,22.50
2023-08-23T01:37:52.764Z,22.47
2023-08-23T01:40:21.927Z,22.45
2023-08-23T01:42:49.739Z,22.44
2023-08-23T01:45:17.526Z,22.42
2023-08-23T01:47:45.706Z,22.41
2023-08-23T01:50:13.686Z,22.39
2023-08-23T01:52:47.345Z,22.36
2023-08-23T01:55:18.631Z,22.19
2023-08-23T01:57:48.093Z,22.23
2023-08-23T02:00:16.565Z,22.26
2023-08-23T02:02:44.470Z,22.09
2023-08-23T02:05:12.172Z,22.25
2023-08-23T02:07:39.991Z,22.24
2023-08-23T02:10:08.473Z,22.19
2023-08-23T02:12:36.510Z,22.19
2023-08-23T02:15:06.476Z,22.22
2023-08-23T02:17:34.229Z,22.21
2023-08-23T02:20:01.887Z,22.17
2023-08-23T02:22:29.623Z,22.15
2023-08-23T02:24:57.485Z,22.07
2023-08-23T02:27:25.192Z,22.10
2023-08-23T02:29:53.083Z,22.08
2023-08-23T02:32:22.131Z,22.05
2023-08-23T02:34:49.839Z,22.06
2023-08-23T02:37:17.524Z,22.05
2023-08-23T02:39:45.345Z,22.05
2023-08-23T02:42:13.013Z,22.01
2023-08-23T02:44:40.912Z,22.03
2023-08-23T02:47:08.581Z,22.02
2023-08-23T02:49:37.833Z,22.00
2023-08-23T02:52:06.196Z,21.60
2023-08-23T02:54:33.926Z,21.94
2023-08-23T02:57:01.658Z,21.94
2023-08-23T02:59:30.177Z,21.85
2023-08-23T03:01:58.061Z,21.74
2023-08-23T03:04:25.968Z,21.75
2023-08-23T03:06:54.941Z,21.63
2023-08-23T03:09:22.683Z,21.73
2023-08-23T03:11:50.357Z,21.56
2023-08-23T03:14:18.155Z,21.72
2023-08-23T03:16:45.829Z,21.72
2023-08-23T03:19:13.651Z,21.72
2023-08-23T03:21:41.310Z,21.73
2023-08-23T03:24:10.416Z,21.68
2023-08-23T03:26:38.129Z,21.72
2023-08-23T03:29:05.799Z,21.71
2023-08-23T03:31:33.605Z,21.68
2023-08-23T03:34:01.244Z,21.66
2023-08-23T03:36:28.992Z,21.61
2023-08-23T03:38:56.655Z,21.48
2023-08-23T03:41:25.822Z,21.60
2023-08-23T03:43:53.552Z,21.58
2023-08-23T03:46:24.966Z,21.58
2023-08-23T03:48:52.767Z,21.56
2023-08-23T03:51:20.442Z,21.53
2023-08-23T03:53:48.170Z,21.53
2023-08-23T03:56:15.839Z,21.49
2023-08-23T03:58:44.990Z,21.50
2023-08-23T04:01:12.775Z,21.45
2023-08-23T04:03:40.838Z,21.50
2023-08-23T04:06:08.809Z,21.49
2023-08-23T04:08:40.858Z,21.28
2023-08-23T04:11:08.569Z,21.46
2023-08-23T04:13:36.841Z,21.42
2023-08-23T04:16:06.055Z,21.40
2023-08-23T04:18:33.892Z,21.39
2023-08-23T04:21:01.659Z,21.39
2023-08-23T04:23:29.446Z,21.35
2023-08-23T04:25:57.338Z,21.37
2023-08-23T04:28:25.013Z,21.37
2023-08-23T04:30:52.814Z,21.17
2023-08-23T04:33:21.816Z,21.36
2023-08-23T04:35:49.653Z,21.37
2023-08-23T04:38:17.333Z,21.36
2023-08-23T04:40:45.107Z,21.36
2023-08-23T04:43:12.858Z,21.36
2023-08-23T04:45:40.779Z,21.36
2023-08-23T04:48:10.072Z,21.37
2023-08-23T04:50:39.359Z,21.36
2023-08-23T04:53:07.003Z,21.36
2023-08-23T04:55:35.755Z,21.41
2023-08-23T04:58:03.448Z,21.39
2023-08-23T05:00:31.510Z,21.44
2023-08-23T05:02:59.202Z,21.46
2023-08-23T05:05:27.093Z,21.47
2023-08-23T05:07:56.229Z,21.38
2023-08-23T05:10:23.994Z,21.43
2023-08-23T05:12:53.159Z,21.46
2023-08-23T05:15:20.978Z,21.48
2023-08-23T05:17:48.922Z,21.45
2023-08-23T05:20:18.901Z,21.50
2023-08-23T05:22:46.555Z,21.17
2023-08-23T05:25:15.664Z,21.49
2023-08-23T05:27:43.758Z,21.53
2023-08-23T05:30:12.049Z,21.59
2023-08-23T05:32:39.880Z,21.67
2023-08-23T05:35:09.032Z,21.73
2023-08-23T05:37:36.917Z,21.75
2023-08-23T05:40:05.770Z,21.80
2023-08-23T05:42:36.552Z,21.82
2023-08-23T05:45:04.595Z,21.88
2023-08-23T05:47:35.115Z,21.95
2023-08-23T05:50:03.193Z,22.02
2023-08-23T05:52:31.218Z,22.11
2023-08-23T05:54:58.936Z,21.87
2023-08-23T05:57:26.827Z,22.33
2023-08-23T05:59:56.104Z,22.43
2023-08-23T06:02:24.495Z,22.55
2023-08-23T06:04:52.463Z,22.67
2023-08-23T06:07:21.457Z,22.73
2023-08-23T06:09:49.483Z,22.91
2023-08-23T06:12:20.551Z,22.99
2023-08-23T06:14:51.672Z,23.12
2023-08-23T06:17:21.102Z,23.33
2023-08-23T06:19:52.227Z,23.69
2023-08-23T06:24:54.628Z,24.68
2023-08-23T06:27:22.395Z,24.92
2023-08-23T06:29:50.175Z,25.70
2023-08-23T06:32:18.503Z,26.12
2023-08-23T06:34:47.631Z,26.79
2023-08-23T06:37:15.782Z,27.31
2023-08-23T06:39:43.522Z,27.83
2023-08-23T06:42:11.286Z,28.36
2023-08-23T06:44:38.966Z,28.88
2023-08-23T06:47:06.775Z,29.36
2023-08-23T06:49:34.521Z,29.78
2023-08-23T06:52:03.729Z,30.15
2023-08-23T06:54:31.394Z,30.50
2023-08-23T06:56:59.180Z,30.90
2023-08-23T06:59:26.920Z,31.25
2023-08-23T07:01:54.781Z,31.54
2023-08-23T07:04:22.454Z,31.91
2023-08-23T07:06:50.324Z,32.13
2023-08-23T07:09:19.384Z,32.41
2023-08-23T07:11:47.101Z,32.81
2023-08-23T07:14:15.251Z,33.09
2023-08-23T07:16:43.047Z,33.58
2023-08-23T07:19:10.795Z,33.96
2023-08-23T07:21:38.601Z,34.42
2023-08-23T07:24:06.803Z,34.83
2023-08-23T07:26:36.230Z,35.17
2023-08-23T07:29:03.952Z,35.61
2023-08-23T07:31:31.695Z,36.01
2023-08-23T07:33:59.624Z,36.35
2023-08-23T07:36:29.299Z,36.70
2023-08-23T07:38:58.675Z,37.08
2023-08-23T07:41:26.547Z,37.46
2023-08-23T07:43:55.686Z,37.80
2023-08-23T07:46:25.395Z,38.18
2023-08-23T07:48:53.270Z,38.55
2023-08-23T07:51:20.994Z,38.83
2023-08-23T07:53:51.271Z,39.09
2023-08-23T07:56:19.746Z,39.38
2023-08-23T07:58:51.942Z,39.64
2023-08-23T08:01:20.991Z,40.02
2023-08-23T08:03:49.017Z,40.36
2023-08-23T08:06:16.877Z,40.61
2023-08-23T08:08:44.809Z,40.86
2023-08-23T08:11:13.362Z,41.09
2023-08-23T08:13:41.071Z,41.46
2023-08-23T08:16:09.072Z,41.74
2023-08-23T08:18:38.364Z,42.08
2023-08-23T08:21:06.484Z,42.33
2023-08-23T08:23:34.190Z,42.53
2023-08-23T08:26:01.882Z,42.77
2023-08-23T08:28:29.653Z,43.06
2023-08-23T08:30:57.516Z,43.37
2023-08-23T08:33:25.298Z,43.73
2023-08-23T08:35:54.361Z,43.89
2023-08-23T08:38:23.343Z,44.09
2023-08-23T08:40:51.273Z,44.30
2023-08-23T08:43:19.247Z,44.55
2023-08-23T08:45:47.188Z,44.84
2023-08-23T08:48:14.031Z,44.90
2023-08-23T08:50:42.014Z,45.01
2023-08-23T08:53:13.539Z,45.22
2023-08-23T08:55:41.229Z,45.39
2023-08-23T08:58:08.931Z,45.22
2023-08-23T09:00:36.660Z,45.38
2023-08-23T09:03:04.484Z,45.38
2023-08-23T09:05:32.284Z,45.89
2023-08-23T09:08:00.051Z,46.29
2023-08-23T09:10:32.549Z,46.68
2023-08-23T09:13:02.393Z,47.11
2023-08-23T09:15:30.478Z,47.46
2023-08-23T09:18:00.242Z,47.74
2023-08-23T09:20:28.097Z,48.07
2023-08-23T09:22:56.444Z,47.88
2023-08-23T09:25:24.679Z,48.10
2023-08-23T09:27:56.519Z,47.84
2023-08-23T09:30:24.915Z,47.78
2023-08-23T09:32:52.760Z,47.61
2023-08-23T09:35:20.949Z,47.10
2023-08-23T09:37:49.815Z,47.28
2023-08-23T09:40:21.578Z,47.49
2023-08-23T09:42:49.404Z,47.99
2023-08-23T09:45:19.610Z,48.44
2023-08-23T09:47:49.265Z,48.79
2023-08-23T09:50:18.813Z,49.11
2023-08-23T09:52:47.194Z,49.36
2023-08-23T09:55:15.819Z,49.96
2023-08-23T09:57:44.478Z,50.47
2023-08-23T10:00:13.253Z,50.82
2023-08-23T10:02:42.416Z,50.56
2023-08-23T10:05:12.822Z,51.40
2023-08-23T10:07:41.282Z,51.41
2023-08-23T10:10:10.187Z,51.83
2023-08-23T10:12:39.686Z,52.17
2023-08-23T10:15:09.502Z,52.55
2023-08-23T10:17:37.228Z,52.90
2023-08-23T10:20:07.902Z,53.08
2023-08-23T10:22:36.734Z,53.17
2023-08-23T10:25:15.635Z,53.32
2023-08-23T10:27:43.725Z,53.75
2023-08-23T10:30:20.734Z,54.11
2023-08-23T10:32:49.282Z,54.52
2023-08-23T10:35:34.476Z,53.80
2023-08-23T10:38:02.189Z,53.76
2023-08-23T10:40:30.274Z,54.10
2023-08-23T10:42:57.997Z,53.86
2023-08-23T10:45:26.933Z,53.23
2023-08-23T10:47:54.681Z,53.16
2023-08-23T10:50:22.589Z,53.65
2023-08-23T10:52:51.842Z,53.69
2023-08-23T10:55:19.899Z,54.28
2023-08-23T10:57:47.941Z,54.87
2023-08-23T11:00:17.855Z,53.49
2023-08-23T11:02:45.943Z,52.74
2023-08-23T11:05:13.709Z,53.34
2023-08-23T11:07:41.386Z,54.06
2023-08-23T11:10:12.441Z,54.94
2023-08-23T11:12:40.579Z,55.16
2023-08-23T11:15:09.328Z,54.66
2023-08-23T11:17:37.265Z,52.67
2023-08-23T11:20:05.748Z,50.34
2023-08-23T11:22:33.498Z,49.43
2023-08-23T11:25:02.411Z,50.58
2023-08-23T11:27:31.463Z,51.83
2023-08-23T11:30:00.345Z,52.34
2023-08-23T11:32:28.416Z,52.25
2023-08-23T11:34:56.701Z,52.47
2023-08-23T11:37:24.869Z,52.42
2023-08-23T11:39:58.922Z,52.88
2023-08-23T11:42:27.612Z,53.02
2023-08-23T11:44:57.352Z,52.76
2023-08-23T11:47:27.975Z,52.43
2023-08-23T11:49:55.893Z,51.59
2023-08-23T11:52:23.569Z,50.09
2023-08-23T11:54:52.388Z,49.20
2023-08-23T11:57:20.127Z,48.06
2023-08-23T11:59:48.655Z,46.86
2023-08-23T12:02:17.759Z,45.96
2023-08-23T12:04:45.559Z,45.08
2023-08-23T12:07:14.030Z,44.30
2023-08-23T12:09:41.771Z,43.35
2023-08-23T12:12:09.854Z,42.65
2023-08-23T12:14:38.231Z,42.12
2023-08-23T12:17:08.559Z,41.46
2023-08-23T12:19:38.143Z,40.94
2023-08-23T12:22:07.630Z,40.45
2023-08-23T12:24:35.745Z,40.12
2023-08-23T12:27:03.632Z,39.83
2023-08-23T12:29:31.489Z,39.50
2023-08-23T12:31:59.407Z,39.22
2023-08-23T12:34:27.269Z,39.01
2023-08-23T12:36:56.789Z,38.79
2023-08-23T12:39:24.521Z,38.57
2023-08-23T12:41:52.248Z,38.39
2023-08-23T12:44:20.022Z,38.24
2023-08-23T12:49:15.746Z,37.96
2023-08-23T12:51:44.872Z,37.73
2023-08-23T12:54:14.491Z,37.56
2023-08-23T12:56:42.571Z,37.41
2023-08-23T12:59:10.791Z,37.26
2023-08-23T13:01:38.632Z,37.11
2023-08-23T13:04:07.610Z,36.98
2023-08-23T13:06:35.407Z,36.89
2023-08-23T13:09:04.008Z,36.80
2023-08-23T13:11:33.290Z,36.65
2023-08-23T13:14:01.047Z,36.55
2023-08-23T13:16:28.725Z,36.46
2023-08-23T13:18:56.476Z,36.39
2023-08-23T13:21:24.435Z,36.34
2023-08-23T13:23:52.098Z,36.27
2023-08-23T13:26:19.826Z,36.19
2023-08-23T13:28:48.868Z,36.09
2023-08-23T13:31:18.302Z,35.91
2023-08-23T13:33:48.231Z,36.01
2023-08-23T13:36:16.104Z,35.32
2023-08-23T13:38:44.140Z,35.89
2023-08-23T13:41:13.184Z,35.68
2023-08-23T13:43:41.303Z,35.81
2023-08-23T13:46:11.213Z,35.75
2023-08-23T13:48:39.298Z,35.69
2023-08-23T13:51:10.774Z,35.70
2023-08-23T13:53:38.810Z,35.61
2023-08-23T13:56:06.723Z,35.57
2023-08-23T13:58:34.435Z,35.44
2023-08-23T14:01:02.245Z,35.33
2023-08-23T14:03:31.437Z,35.18
2023-08-23T14:05:59.615Z,34.85
2023-08-23T14:08:27.343Z,35.08
2023-08-23T14:10:55.119Z,35.07
2023-08-23T14:13:22.826Z,35.10
2023-08-23T14:15:51.025Z,35.10
2023-08-23T14:18:18.787Z,35.07
2023-08-23T14:20:48.968Z,35.11
2023-08-23T14:23:16.719Z,35.13
2023-08-23T14:25:44.508Z,35.14
2023-08-23T14:28:13.130Z,35.05
2023-08-23T14:30:42.851Z,35.06
2023-08-23T14:33:10.894Z,34.98
2023-08-23T14:35:38.621Z,34.85
2023-08-23T14:38:08.011Z,34.79
2023-08-23T14:40:35.762Z,34.67
2023-08-23T14:43:05.507Z,34.61
2023-08-23T14:45:33.177Z,34.60
2023-08-23T14:48:01.219Z,34.59
2023-08-23T14:50:31.238Z,34.57
2023-08-23T14:53:01.009Z,34.48
2023-08-23T14:55:31.306Z,34.48
2023-08-23T14:57:59.014Z,34.48
2023-08-23T15:00:29.408Z,34.49
2023-08-23T15:02:57.316Z,34.47
2023-08-23T15:05:25.198Z,34.35
2023-08-23T15:07:53.144Z,34.40
2023-08-23T15:10:21.074Z,34.38
2023-08-23T15:12:50.279Z,34.35
2023-08-23T15:15:18.198Z,34.32
2023-08-23T15:17:47.810Z,34.30
2023-08-23T15:20:16.914Z,34.33
2023-08-23T15:22:44.866Z,34.34
2023-08-23T15:25:12.697Z,34.31
2023-08-23T15:27:43.826Z,34.30
2023-08-23T15:30:14.394Z,34.25
2023-08-23T15:32:43.083Z,34.23
2023-08-23T15:35:11.734Z,34.18
2023-08-23T15:37:40.096Z,34.08
2023-08-23T15:40:11.567Z,34.07
2023-08-23T15:42:39.497Z,34.04
2023-08-23T15:45:08.527Z,34.01
2023-08-23T15:47:37.828Z,34.01
2023-08-23T15:50:06.633Z,34.01
2023-08-23T15:52:35.035Z,33.98
2023-08-23T15:55:03.974Z,33.97
2023-08-23T15:57:35.382Z,33.91
2023-08-23T16:00:04.959Z,33.84
2023-08-23T16:02:35.397Z,33.83
2023-08-23T16:05:04.897Z,33.75
2023-08-23T16:07:32.909Z,33.76
2023-08-23T16:10:00.738Z,33.71
2023-08-23T16:12:28.801Z,33.66
2023-08-23T16:14:56.737Z,33.59
2023-08-23T16:17:24.622Z,33.47
2023-08-23T16:19:52.750Z,33.51
2023-08-23T16:22:21.945Z,33.46
2023-08-23T16:24:50.864Z,33.43
2023-08-23T16:27:19.012Z,33.35
2023-08-23T16:29:46.898Z,33.29
2023-08-23T16:32:14.793Z,33.23
2023-08-23T16:34:43.930Z,33.21
2023-08-23T16:37:12.050Z,33.19
2023-08-23T16:39:41.333Z,33.14
2023-08-23T16:42:09.476Z,33.08
2023-08-23T16:44:37.252Z,33.05
2023-08-23T16:47:05.590Z,32.99
2023-08-23T16:49:33.240Z,32.93
2023-08-23T16:52:01.003Z,32.88
2023-08-23T16:54:28.767Z,32.82
2023-08-23T16:56:57.897Z,32.76
2023-08-23T16:59:25.538Z,32.68
2023-08-23T17:01:53.175Z,32.67
2023-08-23T17:04:22.928Z,32.60
2023-08-23T17:06:50.814Z,32.57
2023-08-23T17:09:18.553Z,32.18
2023-08-23T17:11:47.344Z,32.46
2023-08-23T17:14:16.567Z,32.40
2023-08-23T17:16:44.313Z,32.36
2023-08-23T17:19:12.169Z,32.27
2023-08-23T17:21:40.980Z,32.19
2023-08-23T17:24:08.785Z,31.71
2023-08-23T17:26:36.611Z,32.09
2023-08-23T17:29:04.449Z,31.90
2023-08-23T17:31:33.493Z,31.96
2023-08-23T17:34:01.211Z,31.92
2023-08-23T17:36:28.903Z,31.88
2023-08-23T17:38:56.788Z,31.81
2023-08-23T17:41:24.511Z,31.76
2023-08-23T17:43:52.302Z,31.70
2023-08-23T17:46:37.514Z,31.63
2023-08-23T17:49:05.534Z,31.54
2023-08-23T17:51:33.379Z,31.50
2023-08-23T17:54:01.616Z,31.44
2023-08-23T17:56:29.505Z,31.38
2023-08-23T17:58:57.250Z,31.31
2023-08-23T18:01:25.067Z,31.25
2023-08-23T18:03:54.149Z,31.18
2023-08-23T18:06:21.953Z,31.11
2023-08-23T18:08:49.679Z,31.06
2023-08-23T18:11:17.519Z,30.98
2023-08-23T18:13:45.366Z,30.73
2023-08-23T18:16:13.162Z,30.83
2023-08-23T18:18:41.237Z,30.59
2023-08-23T18:21:10.297Z,30.66
2023-08-23T18:23:38.011Z,30.56
2023-08-23T18:26:05.701Z,30.45
2023-08-23T18:28:33.349Z,30.33
2023-08-23T18:31:03.493Z,30.02
2023-08-23T18:33:36.001Z,30.05
2023-08-23T18:36:06.465Z,29.89
2023-08-23T18:38:38.908Z,29.61
2023-08-23T18:41:06.650Z,29.68
2023-08-23T18:43:34.426Z,29.57
2023-08-23T18:46:02.123Z,29.40
2023-08-23T18:48:29.899Z,29.30
2023-08-23T18:50:59.095Z,29.24
2023-08-23T18:53:27.318Z,29.12
2023-08-23T18:58:24.191Z,28.84
2023-08-23T19:00:51.834Z,28.68
2023-08-23T19:03:19.684Z,28.59
2023-08-23T19:05:47.877Z,28.50
2023-08-23T19:08:15.536Z,28.39
2023-08-23T19:10:43.200Z,28.31
2023-08-23T19:13:10.893Z,28.23
2023-08-23T19:15:40.101Z,28.15
2023-08-23T19:18:08.999Z,28.12
2023-08-23T19:20:37.693Z,27.92
2023-08-23T19:23:05.525Z,28.02
2023-08-23T19:25:33.326Z,27.94
2023-08-23T19:28:01.320Z,27.87
2023-08-23T19:30:28.960Z,27.79
2023-08-23T19:32:57.969Z,27.69
2023-08-23T19:35:40.247Z,27.57
2023-08-23T19:38:08.080Z,27.53
2023-08-23T19:40:35.897Z,27.45
2023-08-23T19:43:04.238Z,27.21
2023-08-23T19:45:31.893Z,27.35
2023-08-23T19:48:08.653Z,27.02
2023-08-23T19:50:48.512Z,27.17
2023-08-23T19:53:16.187Z,27.10
2023-08-23T19:55:44.110Z,27.03
2023-08-23T19:58:11.913Z,26.94
2023-08-23T20:00:39.559Z,26.92
2023-08-23T20:03:08.868Z,26.88
2023-08-23T20:05:36.555Z,26.87
2023-08-23T20:08:05.670Z,26.82
2023-08-23T20:10:33.429Z,26.71
2023-08-23T20:13:01.080Z,26.71
2023-08-23T20:15:29.648Z,26.68
2023-08-23T20:17:57.848Z,26.64
2023-08-23T20:20:27.072Z,26.60
2023-08-23T20:22:54.816Z,26.58
2023-08-23T20:25:24.334Z,26.56
2023-08-23T20:27:52.356Z,26.55
2023-08-23T20:30:21.259Z,26.53
2023-08-23T20:32:49.324Z,26.09
2023-08-23T20:35:16.957Z,26.40
2023-08-23T20:37:46.028Z,26.46
2023-08-23T20:40:14.613Z,26.41
2023-08-23T20:42:42.275Z,26.38
2023-08-23T20:45:10.540Z,26.35
2023-08-23T20:47:38.216Z,26.31
2023-08-23T20:50:07.054Z,26.29
2023-08-23T20:52:34.769Z,26.28
2023-08-23T20:55:04.935Z,26.25
2023-08-23T20:57:32.637Z,26.24
2023-08-23T21:00:00.289Z,26.09
2023-08-23T21:02:28.188Z,26.19
2023-08-23T21:04:55.996Z,26.17
2023-08-23T21:07:23.612Z,26.14
2023-08-23T21:09:51.269Z,26.11
2023-08-23T21:12:20.266Z,26.09
2023-08-23T21:14:48.615Z,26.09
2023-08-23T21:17:16.304Z,26.05
2023-08-23T21:19:43.949Z,26.04
2023-08-23T21:22:11.622Z,26.01
2023-08-23T21:24:39.270Z,25.74
2023-08-23T21:27:07.318Z,25.97
2023-08-23T21:29:36.467Z,25.97
2023-08-23T21:32:04.133Z,25.94
2023-08-23T21:34:31.931Z,25.85
2023-08-23T21:36:59.784Z,25.81
2023-08-23T21:39:27.488Z,25.76
2023-08-23T21:41:58.541Z,25.72
2023-08-23T21:44:26.286Z,25.69
2023-08-23T21:46:55.359Z,25.65
2023-08-23T21:49:23.453Z,25.58
2023-08-23T21:51:52.167Z,25.62
2023-08-23T21:54:19.801Z,25.59
2023-08-23T21:56:47.492Z,25.59
2023-08-23T21:59:15.246Z,25.57
2023-08-23T22:01:42.981Z,25.54
2023-08-23T22:04:12.060Z,25.49
2023-08-23T22:06:39.675Z,25.50
2023-08-23T22:09:07.434Z,25.46
2023-08-23T22:11:35.298Z,25.45
2023-08-23T22:14:02.942Z,25.42
2023-08-23T22:16:30.675Z,25.41
2023-08-23T22:18:58.403Z,25.37
2023-08-23T22:21:27.649Z,25.34
2023-08-23T22:23:55.340Z,25.30
2023-08-23T22:26:23.066Z,25.26
2023-08-23T22:28:50.852Z,25.23
2023-08-23T22:31:18.606Z,25.23
2023-08-23T22:33:46.526Z,25.20
2023-08-23T22:36:14.180Z,25.17
2023-08-23T22:38:44.479Z,25.14
2023-08-23T22:41:12.451Z,25.12
2023-08-23T22:43:40.130Z,25.05
2023-08-23T22:46:14.826Z,25.04
2023-08-23T22:48:50.497Z,24.94
2023-08-23T22:51:18.380Z,24.97
2023-08-23T22:53:47.541Z,24.96
2023-08-23T22:56:15.389Z,24.88
2023-08-23T22:58:43.006Z,24.89
2023-08-23T23:01:10.873Z,24.87
2023-08-23T23:03:39.000Z,24.86
2023-08-23T23:06:08.378Z,24.83
2023-08-23T23:08:36.476Z,24.81
2023-08-23T23:11:05.888Z,24.79
2023-08-23T23:13:34.692Z,24.74
2023-08-23T23:16:06.137Z,24.73
2023-08-23T23:18:35.450Z,24.75
2023-08-23T23:21:03.847Z,24.73
2023-08-23T23:23:31.534Z,24.70
2023-08-23T23:25:59.356Z,24.66
2023-08-23T23:28:28.403Z,24.64
2023-08-23T23:30:56.173Z,24.58
2023-08-23T23:33:26.929Z,24.59
2023-08-23T23:35:56.361Z,24.43
2023-08-23T23:38:25.965Z,24.53
2023-08-23T23:40:56.037Z,24.38
2023-08-23T23:43:23.864Z,24.52
2023-08-23T23:45:53.049Z,24.46
2023-08-23T23:48:20.881Z,24.48
2023-08-23T23:50:48.741Z,24.44
2023-08-23T23:53:16.592Z,24.44
2023-08-23T23:55:45.046Z,24.43
2023-08-23T23:58:12.857Z,24.42
